Time;durP1;ratioP1;P1;durP2;ratioP2;P2;SDS_P1;SDS_P2;PMS_P1;PMS_P2;Temp;Humidity;BMP_temperature;BMP_pressure;BME280_temperature;BME280_humidity;BME280_pressure;Samples;Min_cycle;Max_cycle;Signal;HPM_P1;HPM_P2
2021/04/14 00:00:23;;;;;;;19.60;11.35;;;;;;;2.10;100.00;102535.34;5044532;28;20128;-55
2021/04/14 00:02:52;;;;;;;16.30;10.38;;;;;;;2.07;100.00;102543.38;5049656;28;20428;-56
2021/04/14 00:05:21;;;;;;;15.65;10.45;;;;;;;1.98;100.00;102535.84;5049168;28;20052;-56
2021/04/14 00:07:48;;;;;;;14.43;10.40;;;;;;;1.87;100.00;102546.84;5048152;28;20087;-56
2021/04/14 00:10:18;;;;;;;14.63;9.38;;;;;;;1.79;100.00;102541.06;5050298;28;20064;-54
2021/04/14 00:12:44;;;;;;;13.07;9.15;;;;;;;1.80;100.00;102548.00;5048411;28;20036;-56
2021/04/14 00:15:15;;;;;;;14.70;8.98;;;;;;;1.72;100.00;102541.28;5051107;28;20041;-56
2021/04/14 00:17:42;;;;;;;14.85;9.20;;;;;;;1.60;100.00;102541.78;5050025;28;20045;-56
2021/04/14 00:20:12;;;;;;;17.30;9.70;;;;;;;1.46;100.00;102537.09;5047492;28;20059;-56
2021/04/14 00:22:39;;;;;;;12.73;9.05;;;;;;;1.35;100.00;102531.41;5048513;28;20041;-55
2021/04/14 00:25:07;;;;;;;11.90;8.27;;;;;;;1.35;100.00;102532.25;5049614;28;20436;-56
2021/04/14 00:27:38;;;;;;;11.38;6.40;;;;;;;1.82;100.00;102522.47;5053985;28;20041;-56
2021/04/14 00:30:07;;;;;;;10.52;6.05;;;;;;;2.09;100.00;102524.88;5044788;28;20048;-56
2021/04/14 00:32:34;;;;;;;9.65;5.55;;;;;;;2.21;100.00;102516.41;5049805;28;20037;-56
2021/04/14 00:35:01;;;;;;;13.95;7.90;;;;;;;2.10;100.00;102521.28;5050698;28;20455;-56
2021/04/14 00:37:29;;;;;;;13.48;8.43;;;;;;;1.84;100.00;102518.00;5049760;28;20355;-56
2021/04/14 00:39:56;;;;;;;11.80;8.02;;;;;;;1.64;100.00;102522.31;5055570;28;20048;-56
2021/04/14 00:42:23;;;;;;;15.05;9.50;;;;;;;1.51;100.00;102515.84;5047483;28;20048;-58
2021/04/14 00:44:50;;;;;;;15.52;9.82;;;;;;;1.27;100.00;102518.53;5048549;28;20340;-56
2021/04/14 00:47:17;;;;;;;12.40;8.27;;;;;;;1.12;100.00;102513.88;5051837;28;20049;-56
2021/04/14 00:49:45;;;;;;;18.05;9.27;;;;;;;1.18;100.00;102525.03;5048626;28;20456;-54
2021/04/14 00:52:12;;;;;;;17.80;9.73;;;;;;;1.44;100.00;102519.66;5050806;28;20315;-55
2021/04/14 00:54:41;;;;;;;15.43;8.65;;;;;;;1.30;100.00;102505.25;5052393;28;20045;-58
2021/04/14 00:57:08;;;;;;;12.27;6.90;;;;;;;1.63;100.00;102510.06;5052553;28;20041;-56
2021/04/14 00:59:35;;;;;;;10.77;5.85;;;;;;;1.98;100.00;102505.09;5054022;28;20052;-56
2021/04/14 01:02:02;;;;;;;10.35;5.82;;;;;;;2.43;100.00;102500.50;5046718;28;20367;-55
2021/04/14 01:04:29;;;;;;;12.32;7.13;;;;;;;2.75;100.00;102501.69;5053496;28;20049;-56
2021/04/14 01:06:56;;;;;;;10.88;7.00;;;;;;;2.36;100.00;102494.63;5053109;28;20045;-56
2021/04/14 01:09:23;;;;;;;10.38;7.20;;;;;;;2.22;100.00;102499.69;5055256;28;20135;-56
2021/04/14 01:11:51;;;;;;;16.20;9.93;;;;;;;2.11;100.00;102504.56;5048223;28;20317;-55
2021/04/14 01:14:18;;;;;;;17.25;10.05;;;;;;;1.71;100.00;102501.84;5053666;28;20049;-55
2021/04/14 01:16:44;;;;;;;23.45;8.88;;;;;;;1.37;100.00;102506.72;5054088;28;20162;-56
2021/04/14 01:19:12;;;;;;;12.73;7.25;;;;;;;1.28;100.00;102496.56;5052968;28;20081;-55
2021/04/14 01:21:42;;;;;;;11.90;7.35;;;;;;;1.13;100.00;102502.44;5049420;28;20037;-57
2021/04/14 01:24:10;;;;;;;10.93;6.50;;;;;;;0.96;100.00;102493.41;5054471;28;20067;-55
2021/04/14 01:26:37;;;;;;;12.40;7.53;;;;;;;0.87;100.00;102493.78;5052908;28;20287;-56
2021/04/14 01:29:06;;;;;;;11.07;7.72;;;;;;;0.78;100.00;102495.00;5056413;28;20387;-56
2021/04/14 01:31:33;;;;;;;11.68;7.60;;;;;;;0.51;100.00;102491.63;5048456;28;20455;-56
2021/04/14 01:34:01;;;;;;;12.98;7.75;;;;;;;0.41;100.00;102491.13;5055861;28;20045;-54
2021/04/14 01:36:28;;;;;;;16.50;10.32;;;;;;;0.66;100.00;102480.53;5050340;28;20041;-56
2021/04/14 01:38:56;;;;;;;13.63;8.20;;;;;;;0.79;100.00;102482.69;5054232;28;20367;-55
2021/04/14 01:41:23;;;;;;;12.25;7.97;;;;;;;0.62;100.00;102494.69;5048211;28;20045;-56
2021/04/14 01:43:50;;;;;;;11.30;7.53;;;;;;;0.54;100.00;102488.91;5051041;28;20110;-56
2021/04/14 01:46:17;;;;;;;10.65;6.70;;;;;;;0.67;100.00;102481.41;5052211;28;20396;-55
2021/04/14 01:48:44;;;;;;;12.45;6.93;;;;;;;0.89;100.00;102494.56;5052108;28;20048;-55
2021/04/14 01:51:13;;;;;;;9.50;5.78;;;;;;;1.19;100.00;102489.03;5050080;28;20033;-55
2021/04/14 01:53:40;;;;;;;11.25;7.18;;;;;;;1.21;100.00;102487.22;5051610;28;20051;-55
2021/04/14 01:56:09;;;;;;;11.65;6.80;;;;;;;1.09;100.00;102492.94;5052253;28;20045;-56
2021/04/14 01:58:36;;;;;;;13.27;8.27;;;;;;;1.01;100.00;102494.09;5050652;28;20158;-54
2021/04/14 02:01:08;;;;;;;14.05;9.57;;;;;;;0.81;100.00;102492.25;5050785;28;20447;-56
2021/04/14 02:03:37;;;;;;;13.95;7.63;;;;;;;0.66;100.00;102495.47;5052455;28;20052;-56
2021/04/14 02:06:05;;;;;;;13.50;8.75;;;;;;;0.59;100.00;102486.94;5053731;28;20044;-55
2021/04/14 02:08:32;;;;;;;11.15;7.18;;;;;;;0.57;100.00;102480.88;5052014;28;20436;-55
2021/04/14 02:10:59;;;;;;;11.68;7.35;;;;;;;0.80;100.00;102481.78;5049606;28;20052;-56
2021/04/14 02:13:28;;;;;;;11.48;6.32;;;;;;;0.87;100.00;102482.44;5055614;28;20426;-56
2021/04/14 02:15:57;;;;;;;11.05;6.65;;;;;;;0.84;100.00;102484.25;5049530;28;20045;-52
2021/04/14 02:18:25;;;;;;;11.65;6.90;;;;;;;0.74;100.00;102477.63;5052594;28;20314;-55
2021/04/14 02:20:52;;;;;;;12.05;8.13;;;;;;;0.36;100.00;102476.44;5047941;28;20045;-55
2021/04/14 02:23:21;;;;;;;13.25;7.88;;;;;;;0.01;100.00;102475.91;5057281;28;20049;-56
2021/04/14 02:25:48;;;;;;;12.80;7.53;;;;;;;0.04;100.00;102475.81;5048852;28;20052;-56
2021/04/14 02:28:16;;;;;;;15.20;10.70;;;;;;;-0.05;100.00;102477.84;5052791;28;20053;-56
2021/04/14 02:30:48;;;;;;;10.10;7.78;;;;;;;-0.28;100.00;102478.63;5046347;28;20139;-55
2021/04/14 02:33:15;;;;;;;14.93;8.57;;;;;;;-0.51;100.00;102468.91;5051702;28;20049;-56
2021/04/14 02:35:42;;;;;;;13.93;7.00;;;;;;;-0.47;100.00;102473.13;5052863;28;20514;-55
2021/04/14 02:38:09;;;;;;;11.52;6.13;;;;;;;-0.17;100.00;102467.78;5050274;28;20037;-55
2021/04/14 02:40:36;;;;;;;11.90;6.13;;;;;;;0.38;100.00;102464.09;5049256;28;20068;-55
2021/04/14 02:43:04;;;;;;;10.80;6.30;;;;;;;0.47;100.00;102461.13;5051411;28;20050;-55
2021/04/14 02:45:33;;;;;;;11.60;6.80;;;;;;;0.33;100.00;102464.25;5056472;28;20376;-54
2021/04/14 02:48:01;;;;;;;9.55;6.00;;;;;;;0.28;100.00;102464.41;5047428;28;20594;-55
2021/04/14 02:50:29;;;;;;;11.35;6.75;;;;;;;0.25;100.00;102461.88;5051288;28;20045;-56
2021/04/14 02:52:56;;;;;;;10.48;6.40;;;;;;;0.19;100.00;102462.13;5050990;28;20061;-56
2021/04/14 02:55:26;;;;;;;11.90;6.47;;;;;;;-0.02;100.00;102467.22;5050362;28;20049;-54
2021/04/14 02:57:53;;;;;;;12.25;6.70;;;;;;;-0.22;100.00;102464.44;5052567;28;20328;-55
2021/04/14 03:00:22;;;;;;;11.52;6.50;;;;;;;-0.27;100.00;102461.09;5046751;28;20364;-56
2021/04/14 03:02:49;;;;;;;10.60;6.65;;;;;;;-0.39;100.00;102458.00;5048996;28;20052;-55
2021/04/14 03:05:19;;;;;;;10.80;6.28;;;;;;;-0.16;100.00;102458.97;5050160;28;20033;-56
2021/04/14 03:07:46;;;;;;;11.30;6.57;;;;;;;-0.16;100.00;102455.50;5052846;28;20125;-56
2021/04/14 03:10:14;;;;;;;13.18;6.45;;;;;;;-0.36;100.00;102457.88;5051094;28;20340;-56
2021/04/14 03:12:41;;;;;;;10.77;6.60;;;;;;;-0.56;100.00;102460.34;5048085;28;20071;-56
2021/04/14 03:15:09;;;;;;;10.75;7.25;;;;;;;-0.77;100.00;102452.25;5055052;28;20052;-56
2021/04/14 03:17:36;;;;;;;15.30;8.32;;;;;;;-0.62;100.00;102450.91;5053041;28;20049;-55
2021/04/14 03:20:04;;;;;;;11.95;6.45;;;;;;;-0.61;100.00;102449.13;5048126;28;20049;-54
2021/04/14 03:22:32;;;;;;;13.15;7.10;;;;;;;-0.61;100.00;102446.50;5051123;28;20435;-56
2021/04/14 03:24:59;;;;;;;11.75;7.10;;;;;;;-0.38;100.00;102451.00;5050970;28;20053;-54
2021/04/14 03:27:26;;;;;;;17.92;7.70;;;;;;;-0.62;100.00;102450.03;5053077;28;20045;-54
2021/04/14 03:29:53;;;;;;;16.15;9.25;;;;;;;-0.54;100.00;102448.88;5050756;28;20051;-55
2021/04/14 03:32:20;;;;;;;14.90;9.00;;;;;;;-0.59;100.00;102445.53;5045779;28;20082;-55
2021/04/14 03:34:46;;;;;;;15.60;7.28;;;;;;;-0.53;100.00;102444.47;5051054;28;20361;-56
2021/04/14 03:37:13;;;;;;;12.70;7.70;;;;;;;-0.30;100.00;102453.34;5049502;28;20045;-56
2021/04/14 03:39:41;;;;;;;12.68;7.45;;;;;;;-0.06;100.00;102442.00;5051167;28;20421;-56
2021/04/14 03:42:08;;;;;;;14.40;7.65;;;;;;;0.07;100.00;102449.41;5048843;28;20041;-55
2021/04/14 03:44:38;;;;;;;13.02;6.95;;;;;;;-0.02;100.00;102450.63;5051472;28;20067;-56
2021/04/14 03:47:05;;;;;;;13.32;7.65;;;;;;;-0.12;100.00;102443.97;5048535;28;20056;-55
2021/04/14 03:49:33;;;;;;;13.52;7.25;;;;;;;-0.14;100.00;102446.66;5053983;28;20086;-54
2021/04/14 03:52:01;;;;;;;12.93;7.00;;;;;;;-0.22;100.00;102446.06;5045762;28;20036;-56
2021/04/14 03:54:28;;;;;;;11.02;7.00;;;;;;;-0.25;100.00;102440.94;5051652;28;20059;-56
2021/04/14 03:56:56;;;;;;;12.60;7.05;;;;;;;-0.09;100.00;102449.13;5053091;28;20052;-55
2021/04/14 03:59:23;;;;;;;16.73;7.57;;;;;;;0.14;100.00;102443.91;5052233;28;20044;-55
2021/04/14 04:01:50;;;;;;;12.23;8.02;;;;;;;0.30;100.00;102448.59;5043482;28;20037;-56
2021/04/14 04:04:18;;;;;;;15.88;7.68;;;;;;;0.01;100.00;102442.63;5048273;28;20053;-56
2021/04/14 04:06:45;;;;;;;11.50;6.82;;;;;;;0.12;100.00;102443.09;5051864;28;20053;-54
2021/04/14 04:09:12;;;;;;;12.93;7.22;;;;;;;0.24;100.00;102446.19;5050753;28;20060;-56
2021/04/14 04:11:38;;;;;;;11.98;7.28;;;;;;;0.22;100.00;102451.50;5048689;28;20048;-56
2021/04/14 04:14:06;;;;;;;11.40;8.00;;;;;;;-0.16;100.00;102453.72;5050659;28;20296;-56
2021/04/14 04:16:33;;;;;;;13.93;7.95;;;;;;;-0.26;100.00;102455.81;5049030;28;20056;-56
2021/04/14 04:19:00;;;;;;;11.98;8.52;;;;;;;-0.28;100.00;102454.16;5049824;28;20496;-56
2021/04/14 04:21:27;;;;;;;12.88;8.88;;;;;;;-0.33;100.00;102445.56;5051256;28;20045;-54
2021/04/14 04:23:55;;;;;;;16.45;9.15;;;;;;;-0.43;100.00;102445.88;5053750;28;20076;-56
2021/04/14 04:26:22;;;;;;;13.55;8.38;;;;;;;-0.37;100.00;102439.56;5054815;28;20044;-56
2021/04/14 04:28:49;;;;;;;14.30;7.22;;;;;;;-0.19;100.00;102432.81;5056976;28;20061;-56
2021/04/14 04:31:16;;;;;;;12.57;6.88;;;;;;;0.00;100.00;102435.66;5049011;28;20051;-56
2021/04/14 04:33:43;;;;;;;8.80;5.95;;;;;;;0.17;100.00;102430.66;5051674;28;20041;-56
2021/04/14 04:36:10;;;;;;;9.40;6.75;;;;;;;0.35;100.00;102433.50;5054869;28;20052;-56
2021/04/14 04:38:37;;;;;;;12.50;8.15;;;;;;;0.60;100.00;102435.22;5053748;28;20045;-52
2021/04/14 04:41:04;;;;;;;13.30;7.47;;;;;;;0.57;100.00;102432.69;5051847;28;20064;-56
2021/04/14 04:43:32;;;;;;;12.60;7.85;;;;;;;0.56;100.00;102438.88;5053657;28;20041;-55
2021/04/14 04:45:58;;;;;;;10.65;6.47;;;;;;;0.73;100.00;102430.34;5052329;28;20380;-56
2021/04/14 04:48:26;;;;;;;10.05;6.25;;;;;;;1.02;100.00;102430.06;5053964;28;20036;-57
2021/04/14 04:50:53;;;;;;;10.30;6.32;;;;;;;1.23;100.00;102432.72;5050798;28;20164;-56
2021/04/14 04:53:22;;;;;;;12.02;6.95;;;;;;;1.02;100.00;102431.81;5052390;28;20052;-55
2021/04/14 04:55:51;;;;;;;14.07;7.70;;;;;;;0.84;100.00;102433.41;5049359;28;20037;-56
2021/04/14 04:58:18;;;;;;;12.43;8.10;;;;;;;0.46;100.00;102441.84;5052199;28;20060;-55
2021/04/14 05:00:46;;;;;;;15.85;8.68;;;;;;;-0.02;100.00;102443.56;5051392;28;20048;-55
2021/04/14 05:03:14;;;;;;;14.00;8.75;;;;;;;-0.33;100.00;102440.31;5052852;28;20332;-56
2021/04/14 05:05:42;;;;;;;12.48;8.20;;;;;;;-0.52;100.00;102451.44;5055345;28;20340;-55
2021/04/14 05:08:10;;;;;;;16.80;8.90;;;;;;;-0.66;100.00;102453.69;5050417;28;20367;-56
2021/04/14 05:10:37;;;;;;;15.18;8.63;;;;;;;-0.41;100.00;102457.19;5049572;28;20048;-55
2021/04/14 05:13:05;;;;;;;13.50;8.18;;;;;;;-0.48;100.00;102450.44;5051437;28;20048;-55
2021/04/14 05:15:34;;;;;;;14.35;8.98;;;;;;;-0.31;100.00;102454.25;5051116;28;20332;-57
2021/04/14 05:18:02;;;;;;;23.15;9.23;;;;;;;0.04;100.00;102454.78;5049810;28;20045;-55
2021/04/14 05:20:29;;;;;;;14.05;8.05;;;;;;;0.37;100.00;102449.22;5048708;28;20053;-54
2021/04/14 05:22:58;;;;;;;13.23;8.20;;;;;;;0.08;100.00;102449.38;5051604;28;20048;-56
2021/04/14 05:25:29;;;;;;;14.20;8.07;;;;;;;0.05;100.00;102456.50;5052625;28;20044;-56
2021/04/14 05:28:01;;;;;;;15.85;8.98;;;;;;;0.04;100.00;102457.41;5056485;28;20369;-56
2021/04/14 05:30:28;;;;;;;11.52;8.38;;;;;;;0.15;100.00;102457.88;5053078;28;20345;-56
2021/04/14 05:32:55;;;;;;;13.90;9.30;;;;;;;0.07;100.00;102460.81;5052423;28;20033;-56
2021/04/14 05:35:22;;;;;;;14.43;9.00;;;;;;;0.14;100.00;102461.44;5056321;28;20049;-55
2021/04/14 05:37:49;;;;;;;11.70;8.50;;;;;;;0.23;100.00;102455.84;5047110;28;20049;-56
2021/04/14 05:40:17;;;;;;;12.50;8.00;;;;;;;0.36;100.00;102458.88;5051245;28;20329;-55
2021/04/14 05:42:46;;;;;;;10.60;6.88;;;;;;;0.72;100.00;102462.81;5052989;28;20050;-56
2021/04/14 05:45:16;;;;;;;11.63;6.68;;;;;;;1.09;100.00;102450.84;5051992;28;20067;-55
2021/04/14 05:47:43;;;;;;;10.65;7.30;;;;;;;1.21;100.00;102468.78;5050395;28;20053;-56
2021/04/14 05:50:14;;;;;;;10.73;7.28;;;;;;;0.87;100.00;102462.22;5049370;28;20045;-54
2021/04/14 05:52:41;;;;;;;16.90;8.88;;;;;;;0.54;100.00;102467.88;5051725;28;20508;-56
2021/04/14 05:55:08;;;;;;;13.10;8.32;;;;;;;0.29;100.00;102466.13;5047555;28;20049;-56
2021/04/14 05:57:36;;;;;;;17.40;8.65;;;;;;;0.40;100.00;102468.38;5051353;28;20037;-56
2021/04/14 06:00:05;;;;;;;16.08;9.80;;;;;;;0.55;100.00;102471.34;5051396;28;20048;-55
2021/04/14 06:02:32;;;;;;;15.40;8.80;;;;;;;0.68;100.00;102473.44;5048736;28;20137;-56
2021/04/14 06:04:59;;;;;;;14.02;8.60;;;;;;;0.98;100.00;102467.91;5052569;28;20119;-56
2021/04/14 06:07:26;;;;;;;13.02;8.10;;;;;;;2.17;100.00;102470.00;5050405;28;20056;-57
2021/04/14 06:09:53;;;;;;;15.95;9.65;;;;;;;3.06;100.00;102468.56;5050026;28;20429;-56
2021/04/14 06:12:20;;;;;;;13.77;8.73;;;;;;;2.33;100.00;102472.84;5046379;28;20044;-57
2021/04/14 06:14:48;;;;;;;18.45;10.18;;;;;;;1.59;100.00;102487.41;5053251;28;20467;-57
2021/04/14 06:17:14;;;;;;;19.15;10.52;;;;;;;1.91;100.00;102487.81;5049601;28;20571;-56
2021/04/14 06:19:42;;;;;;;18.55;10.93;;;;;;;2.02;100.00;102493.50;5051482;28;20048;-57
2021/04/14 06:22:08;;;;;;;16.08;9.85;;;;;;;1.94;100.00;102490.31;5048606;28;20056;-54
2021/04/14 06:24:35;;;;;;;17.05;9.60;;;;;;;2.38;100.00;102484.91;5050747;28;20041;-57
2021/04/14 06:27:05;;;;;;;15.05;10.20;;;;;;;2.39;100.00;102493.66;5053209;28;20286;-57
2021/04/14 06:29:32;;;;;;;16.45;10.20;;;;;;;2.55;100.00;102494.69;5053772;28;20045;-55
2021/04/14 06:32:00;;;;;;;17.48;11.43;;;;;;;2.72;100.00;102493.91;5048374;28;20329;-57
2021/04/14 06:34:29;;;;;;;20.80;11.00;;;;;;;3.26;100.00;102486.09;5048808;28;20099;-57
2021/04/14 06:36:58;;;;;;;23.17;13.88;;;;;;;3.32;100.00;102491.97;5051950;28;20044;-56
2021/04/14 06:39:29;;;;;;;16.02;9.52;;;;;;;3.31;100.00;102492.94;5050450;28;20041;-56
2021/04/14 06:42:12;;;;;;;17.58;9.25;;;;;;;3.57;100.00;102495.16;5050754;28;20332;-56
2021/04/14 06:44:52;;;;;;;13.15;9.48;;;;;;;3.89;100.00;102489.16;5051700;28;20040;-57
2021/04/14 06:47:27;;;;;;;16.83;10.52;;;;;;;3.82;100.00;102487.75;5050540;28;20080;-57
2021/04/14 06:49:58;;;;;;;20.55;12.80;;;;;;;4.34;100.00;102489.47;5049200;28;20124;-57
2021/04/14 06:52:28;;;;;;;19.92;12.77;;;;;;;4.32;100.00;102497.47;5049762;28;20057;-56
2021/04/14 06:54:59;;;;;;;15.50;8.90;;;;;;;3.97;100.00;102492.28;5050802;28;20048;-56
2021/04/14 06:57:28;;;;;;;14.55;9.15;;;;;;;4.14;100.00;102504.63;5049051;28;20067;-57
2021/04/14 06:59:58;;;;;;;15.25;8.88;;;;;;;3.98;100.00;102496.59;5053839;28;20067;-56
2021/04/14 07:02:31;;;;;;;12.60;9.25;;;;;;;4.16;100.00;102504.53;5046463;28;20044;-55
2021/04/14 07:05:03;;;;;;;22.80;10.05;;;;;;;4.19;100.00;102494.63;5050709;28;20041;-57
2021/04/14 07:07:33;;;;;;;13.48;9.52;;;;;;;4.64;100.00;102492.28;5050885;28;20055;-57
2021/04/14 07:10:06;;;;;;;10.90;9.02;;;;;;;4.50;100.00;102495.66;5054530;28;20044;-57
2021/04/14 07:12:33;;;;;;;14.48;8.80;;;;;;;4.87;100.00;102503.41;5051685;28;20056;-56
2021/04/14 07:15:01;;;;;;;16.83;9.65;;;;;;;4.49;100.00;102493.94;5049584;28;20356;-56
2021/04/14 07:17:39;;;;;;;19.00;11.30;;;;;;;3.93;100.00;102501.28;5049221;28;20052;-56
2021/04/14 07:20:27;;;;;;;16.40;11.30;;;;;;;3.71;100.00;102497.06;5048299;28;20047;-57
2021/04/14 07:23:07;;;;;;;18.98;11.88;;;;;;;4.06;100.00;102499.72;5050332;28;20051;-56
2021/04/14 07:25:39;;;;;;;18.92;12.50;;;;;;;4.04;100.00;102504.25;5045826;28;20068;-54
2021/04/14 07:28:16;;;;;;;20.50;12.10;;;;;;;4.13;100.00;102494.97;5048752;28;20064;-57
2021/04/14 07:30:48;;;;;;;20.35;11.68;;;;;;;4.08;100.00;102500.50;5047113;28;20048;-56
2021/04/14 07:33:22;;;;;;;21.40;13.27;;;;;;;3.64;100.00;102495.66;5048966;28;20758;-55
2021/04/14 07:35:54;;;;;;;21.17;11.80;;;;;;;3.44;100.00;102505.47;5047267;28;20055;-55
2021/04/14 07:38:28;;;;;;;18.50;12.43;;;;;;;3.74;100.00;102510.16;5047866;28;20044;-56
2021/04/14 07:41:02;;;;;;;20.30;11.82;;;;;;;3.77;100.00;102511.75;5046615;28;20048;-56
2021/04/14 07:43:35;;;;;;;19.67;12.68;;;;;;;3.38;100.00;102511.03;5050244;28;20069;-54
2021/04/14 07:46:04;;;;;;;19.88;12.35;;;;;;;3.54;100.00;102505.00;5046608;28;20049;-56
2021/04/14 07:48:33;;;;;;;20.00;12.05;;;;;;;3.89;100.00;102507.66;5030228;28;20037;-56
2021/04/14 07:51:02;;;;;;;17.67;12.25;;;;;;;3.82;100.00;102509.75;5047658;28;20037;-54
2021/04/14 07:53:34;;;;;;;18.63;12.07;;;;;;;3.28;100.00;102520.34;5046755;28;20068;-56
2021/04/14 07:56:04;;;;;;;20.13;12.88;;;;;;;3.60;100.00;102512.59;5050919;28;20049;-56
2021/04/14 07:58:31;;;;;;;19.60;14.10;;;;;;;3.89;100.00;102505.03;5048630;28;20036;-56
2021/04/14 08:01:11;;;;;;;17.35;12.15;;;;;;;4.08;100.00;102504.91;5045110;28;20075;-56
2021/04/14 08:03:38;;;;;;;20.48;12.38;;;;;;;4.41;100.00;102504.06;5044796;28;20705;-56
2021/04/14 08:06:11;;;;;;;21.27;12.75;;;;;;;4.37;100.00;102510.50;5048514;28;20433;-57
2021/04/14 08:08:39;;;;;;;20.45;12.10;;;;;;;4.49;100.00;102504.53;5049825;28;20052;-56
2021/04/14 08:11:08;;;;;;;25.73;13.82;;;;;;;3.90;100.00;102506.75;5047829;28;20484;-56
2021/04/14 08:13:39;;;;;;;18.95;13.27;;;;;;;3.74;100.00;102504.00;5049275;28;20118;-56
2021/04/14 08:16:12;;;;;;;18.83;11.85;;;;;;;4.12;100.00;102502.03;5047139;28;20527;-56
2021/04/14 08:18:48;;;;;;;13.18;9.32;;;;;;;4.44;100.00;102506.59;5050584;28;20307;-57
2021/04/14 08:21:24;;;;;;;15.15;10.40;;;;;;;5.37;100.00;102502.31;5046484;28;20397;-56
2021/04/14 08:24:16;;;;;;;17.38;10.63;;;;;;;5.84;100.00;102496.06;4986610;28;20053;-56
2021/04/14 08:26:53;;;;;;;17.38;9.80;;;;;;;6.98;100.00;102500.66;4987846;28;20058;-57
2021/04/14 08:29:19;;;;;;;12.98;8.65;;;;;;;7.89;100.00;102495.50;4986682;28;20087;-57
2021/04/14 08:31:47;;;;;;;12.60;8.88;;;;;;;8.15;100.00;102492.91;4982930;28;20069;-57
2021/04/14 08:34:19;;;;;;;14.85;8.77;;;;;;;6.89;100.00;102489.66;4987332;28;20389;-57
2021/04/14 08:36:50;;;;;;;13.55;8.02;;;;;;;7.64;100.00;102491.03;4986302;28;20302;-57
2021/04/14 08:39:21;;;;;;;11.07;8.85;;;;;;;9.14;100.00;102504.53;4985116;28;20668;-57
2021/04/14 08:41:48;;;;;;;15.73;10.15;;;;;;;9.71;100.00;102502.13;5018122;28;20056;-56
2021/04/14 08:44:18;;;;;;;12.02;8.63;;;;;;;10.27;100.00;102502.25;5047128;28;20044;-56
2021/04/14 08:46:45;;;;;;;11.73;8.10;;;;;;;8.98;100.00;102496.84;5045401;28;20116;-58
2021/04/14 08:49:18;;;;;;;14.23;9.35;;;;;;;9.52;100.00;102497.34;5047411;28;20052;-57
2021/04/14 08:51:46;;;;;;;15.38;8.73;;;;;;;9.64;100.00;102496.44;5044366;28;20396;-57
2021/04/14 08:54:16;;;;;;;12.52;8.18;;;;;;;9.81;100.00;102501.34;5046218;28;20052;-57
2021/04/14 08:56:43;;;;;;;12.70;7.70;;;;;;;10.40;100.00;102496.00;5046934;28;20625;-56
2021/04/14 08:59:12;;;;;;;12.07;7.88;;;;;;;10.76;100.00;102488.69;5046029;28;20371;-57
2021/04/14 09:01:40;;;;;;;13.40;9.43;;;;;;;10.95;100.00;102494.25;5044827;28;20048;-56
2021/04/14 09:04:09;;;;;;;16.55;9.23;;;;;;;10.17;100.00;102495.94;5046566;28;20421;-58
2021/04/14 09:06:38;;;;;;;12.23;8.13;;;;;;;9.05;100.00;102500.75;5048081;28;20052;-57
2021/04/14 09:09:08;;;;;;;11.85;8.10;;;;;;;9.83;100.00;102498.53;5047965;28;20053;-57
2021/04/14 09:11:36;;;;;;;12.35;7.60;;;;;;;10.08;100.00;102491.31;5041691;28;20199;-58
2021/04/14 09:14:09;;;;;;;13.13;8.50;;;;;;;11.03;100.00;102486.44;5051299;28;20037;-57
2021/04/14 09:16:48;;;;;;;14.55;8.35;;;;;;;9.43;100.00;102494.41;5049588;28;20431;-57
2021/04/14 09:19:25;;;;;;;12.98;8.38;;;;;;;7.65;100.00;102497.19;5048318;28;20368;-56
2021/04/14 09:21:57;;;;;;;16.75;8.35;;;;;;;8.86;100.00;102487.94;5048386;28;20056;-57
2021/04/14 09:24:31;;;;;;;13.48;9.07;;;;;;;8.28;100.00;102499.06;5052577;28;20066;-57
2021/04/14 09:26:59;;;;;;;16.98;8.73;;;;;;;9.55;87.54;102494.44;5051676;28;20049;-56
2021/04/14 09:29:35;;;;;;;12.90;7.23;;;;;;;9.93;96.44;102499.53;5052415;28;20045;-56
2021/04/14 09:32:09;;;;;;;13.95;7.95;;;;;;;8.31;100.00;102494.47;5048847;28;20045;-57
2021/04/14 09:34:37;;;;;;;14.50;8.13;;;;;;;8.04;100.00;102492.78;5048375;28;20579;-55
2021/04/14 09:37:09;;;;;;;12.57;7.40;;;;;;;8.87;100.00;102488.75;5051421;28;20531;-57
2021/04/14 09:39:53;;;;;;;14.02;7.95;;;;;;;8.45;100.00;102486.41;5049087;28;20037;-57
2021/04/14 09:42:30;;;;;;;14.75;9.43;;;;;;;11.03;92.19;102486.44;5046536;28;20048;-57
2021/04/14 09:44:59;;;;;;;17.08;8.15;;;;;;;11.81;83.94;102480.91;5052297;28;20052;-57
2021/04/14 09:47:35;;;;;;;15.85;8.75;;;;;;;9.51;100.00;102480.47;5049934;28;20049;-57
2021/04/14 09:50:19;;;;;;;13.52;8.43;;;;;;;11.94;100.00;102474.53;5050283;28;20329;-56
2021/04/14 09:52:52;;;;;;;13.73;7.35;;;;;;;11.00;77.90;102475.16;5047612;28;20045;-56
2021/04/14 09:55:44;;;;;;;14.15;8.00;;;;;;;10.43;97.79;102469.03;5049721;28;20045;-57
2021/04/14 09:58:14;;;;;;;15.63;8.73;;;;;;;9.83;100.00;102464.69;5049530;28;20379;-57
2021/04/14 10:00:43;;;;;;;15.15;8.88;;;;;;;12.07;87.77;102458.25;5048100;28;20886;-57
2021/04/14 10:03:21;;;;;;;14.75;9.27;;;;;;;12.15;77.06;102450.38;5049939;28;20044;-56
2021/04/14 10:05:50;;;;;;;20.65;11.02;;;;;;;11.55;74.98;102451.00;5051813;28;20056;-57
2021/04/14 10:08:18;;;;;;;17.23;9.93;;;;;;;10.45;100.00;102451.94;5049367;28;20056;-56
2021/04/14 10:10:46;;;;;;;22.30;12.20;;;;;;;10.35;100.00;102448.28;5049716;28;20409;-56
2021/04/14 10:13:16;;;;;;;19.13;11.48;;;;;;;11.76;92.10;102442.97;5049472;28;20052;-57
2021/04/14 10:15:44;;;;;;;16.27;11.07;;;;;;;12.38;80.01;102437.69;5050211;28;20108;-59
2021/04/14 10:18:18;;;;;;;17.92;11.18;;;;;;;10.50;95.69;102444.41;5049369;28;20121;-56
2021/04/14 10:20:45;;;;;;;18.17;10.02;;;;;;;12.64;70.16;102432.66;5048561;28;20040;-56
2021/04/14 10:23:14;;;;;;;16.35;10.50;;;;;;;13.74;58.04;102428.91;5050550;28;20094;-56
2021/04/14 10:25:42;;;;;;;20.58;11.60;;;;;;;13.46;67.49;102432.47;5047161;28;20047;-57
2021/04/14 10:28:16;;;;;;;17.58;11.23;;;;;;;10.51;93.22;102421.19;5050039;28;20049;-56
2021/04/14 10:30:44;;;;;;;16.90;11.15;;;;;;;9.73;100.00;102428.19;5047988;28;20055;-56
2021/04/14 10:33:17;;;;;;;19.58;11.02;;;;;;;10.24;100.00;102424.22;5047437;28;20044;-56
2021/04/14 10:35:44;;;;;;;17.60;11.13;;;;;;;8.29;100.00;102430.69;5052234;28;20048;-56
2021/04/14 10:38:13;;;;;;;17.35;10.70;;;;;;;8.49;100.00;102429.31;5050100;28;20297;-56
2021/04/14 10:40:44;;;;;;;17.40;11.00;;;;;;;8.30;100.00;102424.41;5047632;28;20057;-55
2021/04/14 10:43:15;;;;;;;19.25;10.75;;;;;;;7.93;100.00;102427.84;5047710;28;20056;-54
2021/04/14 10:45:54;;;;;;;18.77;12.00;;;;;;;7.33;100.00;102423.09;5048208;28;20053;-57
2021/04/14 10:48:21;;;;;;;18.25;11.38;;;;;;;7.61;100.00;102416.75;5046294;28;20056;-57
2021/04/14 10:50:47;;;;;;;22.63;11.95;;;;;;;7.70;100.00;102416.13;5031206;28;20364;-56
2021/04/14 10:53:15;;;;;;;17.83;10.85;;;;;;;7.34;100.00;102414.16;5050472;28;20033;-55
2021/04/14 10:55:45;;;;;;;21.17;10.43;;;;;;;7.56;100.00;102413.56;5051840;28;20056;-55
2021/04/14 10:58:18;;;;;;;16.70;11.02;;;;;;;7.41;100.00;102410.13;5052261;28;20162;-54
2021/04/14 11:00:52;;;;;;;16.77;10.25;;;;;;;7.41;100.00;102410.13;5046219;28;20056;-55
2021/04/14 11:03:20;;;;;;;16.30;10.02;;;;;;;7.37;100.00;102416.59;5050493;28;20048;-56
2021/04/14 11:05:49;;;;;;;17.35;11.18;;;;;;;7.50;100.00;102413.97;5053384;28;20045;-57
2021/04/14 11:08:16;;;;;;;17.65;10.98;;;;;;;7.66;100.00;102413.81;5049479;28;20041;-53
2021/04/14 11:10:44;;;;;;;19.95;10.10;;;;;;;7.56;100.00;102419.72;5048927;28;20247;-55
2021/04/14 11:13:17;;;;;;;18.77;10.55;;;;;;;7.87;100.00;102417.63;5050251;28;20044;-58
2021/04/14 11:15:46;;;;;;;19.20;10.25;;;;;;;7.89;100.00;102410.38;5048667;28;20478;-56
2021/04/14 11:18:15;;;;;;;22.88;12.13;;;;;;;7.87;100.00;102411.47;5051634;28;20055;-58
2021/04/14 11:20:45;;;;;;;20.02;10.05;;;;;;;8.21;100.00;102415.28;5050437;28;20055;-58
2021/04/14 11:23:21;;;;;;;17.33;10.38;;;;;;;8.62;100.00;102413.31;5047236;28;20045;-58